Muelle Paraguana, Venezuela
Current Conditions -  °F | °C
As of 6:00 AM on Thursday 23 Oct 2014 (Local Time) from TNCA Reporting Station
Few Clouds Few Clouds  
Wind Chill: 82°   Ceiling: Unl
Heat Index: 89°   Visibility: 6mi
Dew Point: 75°   Wind: 13mph
Humidity: 79%   Direction: 90°E
Pressure: 29.83"   Gusts: NA
Location:  11.78°N, 70.15°W
Report Text: TNCA 231000Z 09011KT 9999 FEW018 28/24 Q1010 A2983 NOSIG
Loading
Personal Weather Stations






























Interactive Weather Map
Tropical Storm Tracking
New forecast layout! Learn more

10-Day Weather Forecast

Advertisements
Track Severe Weather on mobile